sensor_id;sensor_type;location;lat;lon;timestamp;temperature;humidity
39847;DHT22;25517;52.422;10.782;2022-11-03T00:00:04;7.70;99.90
39847;DHT22;25517;52.422;10.782;2022-11-03T00:02:30;7.90;99.90
39847;DHT22;25517;52.422;10.782;2022-11-03T00:04:55;8.00;99.90
39847;DHT22;25517;52.422;10.782;2022-11-03T00:07:21;8.00;99.90
39847;DHT22;25517;52.422;10.782;2022-11-03T00:09:47;8.10;99.90
39847;DHT22;25517;52.422;10.782;2022-11-03T00:12:13;8.10;99.90
39847;DHT22;25517;52.422;10.782;2022-11-03T00:14:38;8.10;99.90
39847;DHT22;25517;52.422;10.782;2022-11-03T00:17:04;8.10;99.90
39847;DHT22;25517;52.422;10.782;2022-11-03T00:19:29;8.00;99.90
39847;DHT22;25517;52.422;10.782;2022-11-03T00:21:55;8.00;99.90
39847;DHT22;25517;52.422;10.782;2022-11-03T00:24:22;7.90;99.90
39847;DHT22;25517;52.422;10.782;2022-11-03T00:26:48;7.80;99.90
39847;DHT22;25517;52.422;10.782;2022-11-03T00:29:13;7.70;99.90
39847;DHT22;25517;52.422;10.782;2022-11-03T00:31:42;7.60;99.90
39847;DHT22;25517;52.422;10.782;2022-11-03T00:34:08;7.50;99.90
39847;DHT22;25517;52.422;10.782;2022-11-03T00:36:39;7.40;99.90
39847;DHT22;25517;52.422;10.782;2022-11-03T00:39:05;7.40;99.90
39847;DHT22;25517;52.422;10.782;2022-11-03T00:41:31;7.40;99.90
39847;DHT22;25517;52.422;10.782;2022-11-03T00:43:56;7.40;99.90
39847;DHT22;25517;52.422;10.782;2022-11-03T00:46:23;7.40;99.90
39847;DHT22;25517;52.422;10.782;2022-11-03T00:48:48;7.30;99.90
39847;DHT22;25517;52.422;10.782;2022-11-03T00:51:17;7.30;99.90
39847;DHT22;25517;52.422;10.782;2022-11-03T00:53:52;7.20;99.90
39847;DHT22;25517;52.422;10.782;2022-11-03T00:56:30;7.20;99.90
39847;DHT22;25517;52.422;10.782;2022-11-03T00:59:00;7.20;99.90
39847;DHT22;25517;52.422;10.782;2022-11-03T01:01:28;7.20;99.90
39847;DHT22;25517;52.422;10.782;2022-11-03T01:03:56;7.10;99.90
39847;DHT22;25517;52.422;10.782;2022-11-03T01:06:43;7.20;99.90
39847;DHT22;25517;52.422;10.782;2022-11-03T01:09:37;7.20;99.90
39847;DHT22;25517;52.422;10.782;2022-11-03T01:12:07;7.20;99.90
39847;DHT22;25517;52.422;10.782;2022-11-03T01:14:51;7.20;99.90
39847;DHT22;25517;52.422;10.782;2022-11-03T01:17:23;7.20;99.90
39847;DHT22;25517;52.422;10.782;2022-11-03T01:19:49;7.20;99.90
39847;DHT22;25517;52.422;10.782;2022-11-03T01:22:15;7.20;99.90
39847;DHT22;25517;52.422;10.782;2022-11-03T01:24:41;7.20;99.90
39847;DHT22;25517;52.422;10.782;2022-11-03T01:27:16;7.20;99.90
39847;DHT22;25517;52.422;10.782;2022-11-03T01:29:42;7.30;99.90
39847;DHT22;25517;52.422;10.782;2022-11-03T01:32:08;7.30;99.90
39847;DHT22;25517;52.422;10.782;2022-11-03T01:34:34;7.30;99.90
39847;DHT22;25517;52.422;10.782;2022-11-03T01:37:00;7.30;99.90
39847;DHT22;25517;52.422;10.782;2022-11-03T01:39:26;7.30;99.90
39847;DHT22;25517;52.422;10.782;2022-11-03T01:41:52;7.30;99.90
39847;DHT22;25517;52.422;10.782;2022-11-03T01:46:56;7.30;99.90
39847;DHT22;25517;52.422;10.782;2022-11-03T01:49:40;7.30;99.90
39847;DHT22;25517;52.422;10.782;2022-11-03T01:52:33;7.30;99.90
39847;DHT22;25517;52.422;10.782;2022-11-03T01:55:03;7.40;99.90
39847;DHT22;25517;52.422;10.782;2022-11-03T01:57:32;7.40;99.90
39847;DHT22;25517;52.422;10.782;2022-11-03T01:59:59;7.40;99.90
39847;DHT22;25517;52.422;10.782;2022-11-03T02:02:26;7.40;99.90
39847;DHT22;25517;52.422;10.782;2022-11-03T02:04:53;7.50;99.90
39847;DHT22;25517;52.422;10.782;2022-11-03T02:07:23;7.60;99.90
39847;DHT22;25517;52.422;10.782;2022-11-03T02:09:50;7.70;99.90
39847;DHT22;25517;52.422;10.782;2022-11-03T02:12:18;7.70;99.90
39847;DHT22;25517;52.422;10.782;2022-11-03T02:14:56;7.80;99.90
39847;DHT22;25517;52.422;10.782;2022-11-03T02:17:25;7.90;99.90
39847;DHT22;25517;52.422;10.782;2022-11-03T02:20:06;8.00;99.90
39847;DHT22;25517;52.422;10.782;2022-11-03T02:27:59;8.10;99.90
39847;DHT22;25517;52.422;10.782;2022-11-03T02:30:27;8.10;99.90
39847;DHT22;25517;52.422;10.782;2022-11-03T02:33:02;8.10;99.90
39847;DHT22;25517;52.422;10.782;2022-11-03T02:35:45;8.10;99.90
39847;DHT22;25517;52.422;10.782;2022-11-03T02:38:13;8.10;99.90
39847;DHT22;25517;52.422;10.782;2022-11-03T02:40:44;8.00;99.90
39847;DHT22;25517;52.422;10.782;2022-11-03T02:43:11;8.10;99.90
39847;DHT22;25517;52.422;10.782;2022-11-03T02:45:37;8.00;99.90
39847;DHT22;25517;52.422;10.782;2022-11-03T02:48:04;8.00;99.90
39847;DHT22;25517;52.422;10.782;2022-11-03T02:50:33;8.00;99.90
39847;DHT22;25517;52.422;10.782;2022-11-03T02:52:59;8.00;99.90
39847;DHT22;25517;52.422;10.782;2022-11-03T03:03:48;7.90;99.90
39847;DHT22;25517;52.422;10.782;2022-11-03T03:06:36;7.90;99.90
39847;DHT22;25517;52.422;10.782;2022-11-03T03:09:06;7.90;99.90
39847;DHT22;25517;52.422;10.782;2022-11-03T03:11:35;8.00;99.90
39847;DHT22;25517;52.422;10.782;2022-11-03T03:14:19;8.00;99.90
39847;DHT22;25517;52.422;10.782;2022-11-03T03:17:04;8.00;99.90
39847;DHT22;25517;52.422;10.782;2022-11-03T03:22:09;8.10;99.90
39847;DHT22;25517;52.422;10.782;2022-11-03T03:24:42;8.10;99.90
39847;DHT22;25517;52.422;10.782;2022-11-03T03:27:11;8.00;99.90
39847;DHT22;25517;52.422;10.782;2022-11-03T03:29:45;8.00;99.90
39847;DHT22;25517;52.422;10.782;2022-11-03T03:32:13;8.10;99.90
39847;DHT22;25517;52.422;10.782;2022-11-03T03:34:41;8.00;99.90
39847;DHT22;25517;52.422;10.782;2022-11-03T03:37:08;8.00;99.90
39847;DHT22;25517;52.422;10.782;2022-11-03T03:39:37;8.00;99.90
39847;DHT22;25517;52.422;10.782;2022-11-03T03:42:04;8.00;99.90
39847;DHT22;25517;52.422;10.782;2022-11-03T03:44:33;7.90;99.90
39847;DHT22;25517;52.422;10.782;2022-11-03T03:47:02;8.00;99.90
39847;DHT22;25517;52.422;10.782;2022-11-03T03:49:28;7.90;99.90
39847;DHT22;25517;52.422;10.782;2022-11-03T03:51:54;7.90;99.90
39847;DHT22;25517;52.422;10.782;2022-11-03T03:54:19;7.90;99.90
39847;DHT22;25517;52.422;10.782;2022-11-03T03:56:47;7.90;99.90
39847;DHT22;25517;52.422;10.782;2022-11-03T03:59:16;7.90;99.90
39847;DHT22;25517;52.422;10.782;2022-11-03T04:01:41;7.90;99.90
39847;DHT22;25517;52.422;10.782;2022-11-03T04:04:07;7.90;99.90
39847;DHT22;25517;52.422;10.782;2022-11-03T04:06:32;7.90;99.90
39847;DHT22;25517;52.422;10.782;2022-11-03T04:08:58;7.90;99.90
39847;DHT22;25517;52.422;10.782;2022-11-03T04:11:23;8.00;99.90
39847;DHT22;25517;52.422;10.782;2022-11-03T04:14:08;8.00;99.90
39847;DHT22;25517;52.422;10.782;2022-11-03T04:17:19;8.00;99.90
39847;DHT22;25517;52.422;10.782;2022-11-03T04:20:08;8.10;99.90
39847;DHT22;25517;52.422;10.782;2022-11-03T04:22:55;8.10;99.90
39847;DHT22;25517;52.422;10.782;2022-11-03T04:25:20;8.20;99.90
39847;DHT22;25517;52.422;10.782;2022-11-03T04:27:46;8.30;99.90
39847;DHT22;25517;52.422;10.782;2022-11-03T04:30:15;8.30;99.90
39847;DHT22;25517;52.422;10.782;2022-11-03T04:32:44;8.30;99.90
39847;DHT22;25517;52.422;10.782;2022-11-03T04:35:17;8.40;99.90
39847;DHT22;25517;52.422;10.782;2022-11-03T04:37:44;8.40;99.90
39847;DHT22;25517;52.422;10.782;2022-11-03T04:40:15;8.40;99.90
39847;DHT22;25517;52.422;10.782;2022-11-03T04:42:41;8.40;99.90
39847;DHT22;25517;52.422;10.782;2022-11-03T04:47:48;8.50;99.90
39847;DHT22;25517;52.422;10.782;2022-11-03T04:50:16;8.50;99.90
39847;DHT22;25517;52.422;10.782;2022-11-03T04:52:43;8.60;99.90
39847;DHT22;25517;52.422;10.782;2022-11-03T04:55:15;8.50;99.90
39847;DHT22;25517;52.422;10.782;2022-11-03T04:57:41;8.60;99.90
39847;DHT22;25517;52.422;10.782;2022-11-03T05:00:15;8.60;99.90
39847;DHT22;25517;52.422;10.782;2022-11-03T05:02:43;8.50;99.90
39847;DHT22;25517;52.422;10.782;2022-11-03T05:05:21;8.60;99.90
39847;DHT22;25517;52.422;10.782;2022-11-03T05:07:49;8.60;99.90
39847;DHT22;25517;52.422;10.782;2022-11-03T05:10:18;8.60;99.90
39847;DHT22;25517;52.422;10.782;2022-11-03T05:12:46;8.60;99.90
39847;DHT22;25517;52.422;10.782;2022-11-03T05:17:59;8.70;99.90
39847;DHT22;25517;52.422;10.782;2022-11-03T05:20:30;8.70;99.90
39847;DHT22;25517;52.422;10.782;2022-11-03T05:22:56;8.70;99.90
39847;DHT22;25517;52.422;10.782;2022-11-03T05:25:46;8.70;99.90
39847;DHT22;25517;52.422;10.782;2022-11-03T05:28:20;8.70;99.90
39847;DHT22;25517;52.422;10.782;2022-11-03T05:30:47;8.80;99.90
39847;DHT22;25517;52.422;10.782;2022-11-03T05:33:17;8.80;99.90
39847;DHT22;25517;52.422;10.782;2022-11-03T05:35:43;8.80;99.90
39847;DHT22;25517;52.422;10.782;2022-11-03T05:38:14;8.80;99.90
39847;DHT22;25517;52.422;10.782;2022-11-03T05:40:40;8.80;99.90
39847;DHT22;25517;52.422;10.782;2022-11-03T05:43:07;8.80;99.90
39847;DHT22;25517;52.422;10.782;2022-11-03T05:45:34;8.90;99.90
39847;DHT22;25517;52.422;10.782;2022-11-03T05:48:04;8.90;99.90
39847;DHT22;25517;52.422;10.782;2022-11-03T05:50:34;8.90;99.90
39847;DHT22;25517;52.422;10.782;2022-11-03T05:55:48;8.90;99.90
39847;DHT22;25517;52.422;10.782;2022-11-03T05:58:23;8.90;99.90
39847;DHT22;25517;52.422;10.782;2022-11-03T06:00:49;8.90;99.90
39847;DHT22;25517;52.422;10.782;2022-11-03T06:03:23;8.80;99.90
39847;DHT22;25517;52.422;10.782;2022-11-03T06:05:49;8.80;99.90
39847;DHT22;25517;52.422;10.782;2022-11-03T06:08:29;8.70;99.90
39847;DHT22;25517;52.422;10.782;2022-11-03T06:10:58;8.80;99.90
39847;DHT22;25517;52.422;10.782;2022-11-03T06:13:35;8.80;99.90
39847;DHT22;25517;52.422;10.782;2022-11-03T06:18:54;8.70;99.90
39847;DHT22;25517;52.422;10.782;2022-11-03T06:21:23;8.70;99.90
39847;DHT22;25517;52.422;10.782;2022-11-03T06:23:49;8.60;99.90
39847;DHT22;25517;52.422;10.782;2022-11-03T06:26:23;8.70;99.90
39847;DHT22;25517;52.422;10.782;2022-11-03T06:28:49;8.70;99.90
39847;DHT22;25517;52.422;10.782;2022-11-03T06:31:25;8.70;99.90
39847;DHT22;25517;52.422;10.782;2022-11-03T06:33:52;8.70;99.90
39847;DHT22;25517;52.422;10.782;2022-11-03T06:36:30;8.80;99.90
39847;DHT22;25517;52.422;10.782;2022-11-03T06:39:01;8.80;99.90
39847;DHT22;25517;52.422;10.782;2022-11-03T06:41:31;8.90;99.90
39847;DHT22;25517;52.422;10.782;2022-11-03T06:43:59;8.90;99.90
39847;DHT22;25517;52.422;10.782;2022-11-03T06:46:26;9.00;99.90
39847;DHT22;25517;52.422;10.782;2022-11-03T06:48:53;9.00;99.90
39847;DHT22;25517;52.422;10.782;2022-11-03T06:51:27;9.20;99.90
39847;DHT22;25517;52.422;10.782;2022-11-03T06:53:54;9.20;99.90
39847;DHT22;25517;52.422;10.782;2022-11-03T06:56:23;9.30;99.90
39847;DHT22;25517;52.422;10.782;2022-11-03T06:58:51;9.40;99.90
39847;DHT22;25517;52.422;10.782;2022-11-03T07:01:20;9.40;99.90
39847;DHT22;25517;52.422;10.782;2022-11-03T07:03:48;9.50;99.90
39847;DHT22;25517;52.422;10.782;2022-11-03T07:06:18;9.50;99.90
39847;DHT22;25517;52.422;10.782;2022-11-03T07:08:50;9.50;99.90
39847;DHT22;25517;52.422;10.782;2022-11-03T07:11:22;9.60;99.90
39847;DHT22;25517;52.422;10.782;2022-11-03T07:13:51;9.60;99.90
39847;DHT22;25517;52.422;10.782;2022-11-03T07:16:18;9.70;99.90
39847;DHT22;25517;52.422;10.782;2022-11-03T07:18:45;9.80;99.90
39847;DHT22;25517;52.422;10.782;2022-11-03T07:21:37;9.90;99.90
39847;DHT22;25517;52.422;10.782;2022-11-03T07:26:42;10.00;99.90
39847;DHT22;25517;52.422;10.782;2022-11-03T07:29:18;10.10;99.90
39847;DHT22;25517;52.422;10.782;2022-11-03T07:31:44;10.10;99.90
39847;DHT22;25517;52.422;10.782;2022-11-03T07:34:18;10.10;99.90
39847;DHT22;25517;52.422;10.782;2022-11-03T07:36:45;10.20;99.90
39847;DHT22;25517;52.422;10.782;2022-11-03T07:39:15;10.20;99.90
39847;DHT22;25517;52.422;10.782;2022-11-03T07:41:42;10.20;99.90
39847;DHT22;25517;52.422;10.782;2022-11-03T07:44:14;10.30;99.90
39847;DHT22;25517;52.422;10.782;2022-11-03T07:46:42;10.40;99.90
39847;DHT22;25517;52.422;10.782;2022-11-03T07:49:13;10.40;99.90
39847;DHT22;25517;52.422;10.782;2022-11-03T07:51:44;10.40;99.90
39847;DHT22;25517;52.422;10.782;2022-11-03T07:54:19;10.60;99.90
39847;DHT22;25517;52.422;10.782;2022-11-03T07:57:05;10.70;99.90
39847;DHT22;25517;52.422;10.782;2022-11-03T07:59:40;10.70;99.90
39847;DHT22;25517;52.422;10.782;2022-11-03T08:04:49;10.90;99.90
39847;DHT22;25517;52.422;10.782;2022-11-03T08:07:15;11.10;99.90
39847;DHT22;25517;52.422;10.782;2022-11-03T08:09:40;11.10;99.90
39847;DHT22;25517;52.422;10.782;2022-11-03T08:12:06;11.20;99.90
39847;DHT22;25517;52.422;10.782;2022-11-03T08:14:31;11.20;99.90
39847;DHT22;25517;52.422;10.782;2022-11-03T08:16:57;11.40;99.90
39847;DHT22;25517;52.422;10.782;2022-11-03T08:19:22;11.40;99.90
39847;DHT22;25517;52.422;10.782;2022-11-03T08:21:48;11.50;99.90
39847;DHT22;25517;52.422;10.782;2022-11-03T08:24:13;11.30;99.90
39847;DHT22;25517;52.422;10.782;2022-11-03T08:26:39;11.40;99.90
39847;DHT22;25517;52.422;10.782;2022-11-03T08:29:04;11.40;99.90
39847;DHT22;25517;52.422;10.782;2022-11-03T08:31:29;11.40;99.90
39847;DHT22;25517;52.422;10.782;2022-11-03T08:33:55;11.50;99.90
39847;DHT22;25517;52.422;10.782;2022-11-03T08:36:20;11.70;99.90
39847;DHT22;25517;52.422;10.782;2022-11-03T08:38:46;11.70;99.90
39847;DHT22;25517;52.422;10.782;2022-11-03T08:41:11;11.70;99.90
39847;DHT22;25517;52.422;10.782;2022-11-03T08:43:37;11.90;99.90
39847;DHT22;25517;52.422;10.782;2022-11-03T08:46:03;11.90;99.90
39847;DHT22;25517;52.422;10.782;2022-11-03T08:48:28;11.90;99.90
39847;DHT22;25517;52.422;10.782;2022-11-03T08:50:54;12.00;99.90
39847;DHT22;25517;52.422;10.782;2022-11-03T08:53:21;12.10;99.90
39847;DHT22;25517;52.422;10.782;2022-11-03T08:55:46;11.90;99.90
39847;DHT22;25517;52.422;10.782;2022-11-03T08:58:12;12.00;99.90
39847;DHT22;25517;52.422;10.782;2022-11-03T09:00:38;12.30;99.90
39847;DHT22;25517;52.422;10.782;2022-11-03T09:03:03;12.30;99.90
39847;DHT22;25517;52.422;10.782;2022-11-03T09:05:29;12.40;99.90
39847;DHT22;25517;52.422;10.782;2022-11-03T09:07:54;12.20;99.90
39847;DHT22;25517;52.422;10.782;2022-11-03T09:10:20;12.30;99.90
39847;DHT22;25517;52.422;10.782;2022-11-03T09:12:45;12.30;99.90
39847;DHT22;25517;52.422;10.782;2022-11-03T09:15:11;12.30;99.90
39847;DHT22;25517;52.422;10.782;2022-11-03T09:17:36;12.30;99.90
39847;DHT22;25517;52.422;10.782;2022-11-03T09:20:03;12.30;99.90
39847;DHT22;25517;52.422;10.782;2022-11-03T09:22:29;12.30;99.90
39847;DHT22;25517;52.422;10.782;2022-11-03T09:24:54;12.40;99.90
39847;DHT22;25517;52.422;10.782;2022-11-03T09:27:20;12.60;99.90
39847;DHT22;25517;52.422;10.782;2022-11-03T09:29:47;12.60;99.90
39847;DHT22;25517;52.422;10.782;2022-11-03T09:32:12;12.60;99.90
39847;DHT22;25517;52.422;10.782;2022-11-03T09:34:38;12.70;99.90
39847;DHT22;25517;52.422;10.782;2022-11-03T09:37:03;12.90;99.90
39847;DHT22;25517;52.422;10.782;2022-11-03T09:39:29;12.90;99.90
39847;DHT22;25517;52.422;10.782;2022-11-03T09:41:54;13.10;99.90
39847;DHT22;25517;52.422;10.782;2022-11-03T09:44:22;13.60;99.90
39847;DHT22;25517;52.422;10.782;2022-11-03T09:46:48;14.30;99.90
39847;DHT22;25517;52.422;10.782;2022-11-03T09:49:15;15.30;99.70
39847;DHT22;25517;52.422;10.782;2022-11-03T09:51:42;15.60;98.30
39847;DHT22;25517;52.422;10.782;2022-11-03T09:54:15;15.90;97.20
39847;DHT22;25517;52.422;10.782;2022-11-03T09:56:42;16.10;97.50
39847;DHT22;25517;52.422;10.782;2022-11-03T09:59:17;16.20;96.40
39847;DHT22;25517;52.422;10.782;2022-11-03T10:01:45;16.00;96.90
39847;DHT22;25517;52.422;10.782;2022-11-03T10:04:12;16.00;96.90
39847;DHT22;25517;52.422;10.782;2022-11-03T10:06:39;15.50;97.60
39847;DHT22;25517;52.422;10.782;2022-11-03T10:09:05;16.50;96.90
39847;DHT22;25517;52.422;10.782;2022-11-03T10:11:33;16.60;95.60
39847;DHT22;25517;52.422;10.782;2022-11-03T10:13:59;16.90;94.80
39847;DHT22;25517;52.422;10.782;2022-11-03T10:16:25;17.90;94.10
39847;DHT22;25517;52.422;10.782;2022-11-03T10:18:52;17.90;93.30
39847;DHT22;25517;52.422;10.782;2022-11-03T10:21:29;18.10;93.20
39847;DHT22;25517;52.422;10.782;2022-11-03T10:23:58;18.90;92.60
39847;DHT22;25517;52.422;10.782;2022-11-03T10:26:23;18.40;91.30
39847;DHT22;25517;52.422;10.782;2022-11-03T10:31:39;18.70;91.40
39847;DHT22;25517;52.422;10.782;2022-11-03T10:34:22;20.40;88.50
39847;DHT22;25517;52.422;10.782;2022-11-03T10:36:47;20.60;88.50
39847;DHT22;25517;52.422;10.782;2022-11-03T10:39:28;19.90;89.70
39847;DHT22;25517;52.422;10.782;2022-11-03T10:41:54;19.80;87.50
39847;DHT22;25517;52.422;10.782;2022-11-03T10:44:20;19.80;88.50
39847;DHT22;25517;52.422;10.782;2022-11-03T10:46:57;20.10;86.20
39847;DHT22;25517;52.422;10.782;2022-11-03T10:49:23;20.60;87.10
39847;DHT22;25517;52.422;10.782;2022-11-03T10:51:52;21.00;84.80
39847;DHT22;25517;52.422;10.782;2022-11-03T10:54:20;21.20;83.30
39847;DHT22;25517;52.422;10.782;2022-11-03T10:56:46;21.30;83.10
39847;DHT22;25517;52.422;10.782;2022-11-03T11:02:17;20.10;84.30
39847;DHT22;25517;52.422;10.782;2022-11-03T11:04:46;19.30;86.50
39847;DHT22;25517;52.422;10.782;2022-11-03T11:07:33;18.00;90.30
39847;DHT22;25517;52.422;10.782;2022-11-03T11:10:09;18.00;91.40
39847;DHT22;25517;52.422;10.782;2022-11-03T11:12:36;18.90;90.40
39847;DHT22;25517;52.422;10.782;2022-11-03T11:15:03;19.70;88.60
39847;DHT22;25517;52.422;10.782;2022-11-03T11:17:47;20.10;86.30
39847;DHT22;25517;52.422;10.782;2022-11-03T11:22:49;19.60;86.90
39847;DHT22;25517;52.422;10.782;2022-11-03T11:25:16;19.90;86.70
39847;DHT22;25517;52.422;10.782;2022-11-03T11:27:53;19.60;88.30
39847;DHT22;25517;52.422;10.782;2022-11-03T11:37:40;20.40;85.60
39847;DHT22;25517;52.422;10.782;2022-11-03T11:48:32;21.70;79.40
39847;DHT22;25517;52.422;10.782;2022-11-03T11:50:58;21.50;79.90
39847;DHT22;25517;52.422;10.782;2022-11-03T11:53:25;20.60;83.10
39847;DHT22;25517;52.422;10.782;2022-11-03T11:55:59;19.40;85.20
39847;DHT22;25517;52.422;10.782;2022-11-03T12:00:54;18.70;88.40
39847;DHT22;25517;52.422;10.782;2022-11-03T12:03:24;19.10;88.00
39847;DHT22;25517;52.422;10.782;2022-11-03T12:05:50;19.50;89.10
39847;DHT22;25517;52.422;10.782;2022-11-03T12:08:17;19.00;86.40
39847;DHT22;25517;52.422;10.782;2022-11-03T12:10:52;17.90;90.60
39847;DHT22;25517;52.422;10.782;2022-11-03T12:16:07;17.50;91.50
39847;DHT22;25517;52.422;10.782;2022-11-03T12:18:41;17.20;92.00
39847;DHT22;25517;52.422;10.782;2022-11-03T12:21:11;17.40;92.00
39847;DHT22;25517;52.422;10.782;2022-11-03T12:23:43;17.00;92.20
39847;DHT22;25517;52.422;10.782;2022-11-03T12:26:17;16.30;93.50
39847;DHT22;25517;52.422;10.782;2022-11-03T12:29:04;16.00;94.50
39847;DHT22;25517;52.422;10.782;2022-11-03T12:31:29;16.00;94.60
39847;DHT22;25517;52.422;10.782;2022-11-03T12:33:55;16.00;94.80
39847;DHT22;25517;52.422;10.782;2022-11-03T12:36:20;16.20;94.70
39847;DHT22;25517;52.422;10.782;2022-11-03T12:38:46;16.10;94.70
39847;DHT22;25517;52.422;10.782;2022-11-03T12:41:11;16.30;94.80
39847;DHT22;25517;52.422;10.782;2022-11-03T12:43:47;16.40;94.60
39847;DHT22;25517;52.422;10.782;2022-11-03T12:46:14;16.00;94.90
39847;DHT22;25517;52.422;10.782;2022-11-03T12:48:39;16.10;95.00
39847;DHT22;25517;52.422;10.782;2022-11-03T12:51:11;16.40;94.70
39847;DHT22;25517;52.422;10.782;2022-11-03T12:53:38;16.30;94.60
39847;DHT22;25517;52.422;10.782;2022-11-03T12:56:03;16.30;94.40
39847;DHT22;25517;52.422;10.782;2022-11-03T12:58:29;16.10;94.40
39847;DHT22;25517;52.422;10.782;2022-11-03T13:00:54;16.30;94.40
39847;DHT22;25517;52.422;10.782;2022-11-03T13:03:20;16.20;94.60
39847;DHT22;25517;52.422;10.782;2022-11-03T13:05:45;16.20;95.00
39847;DHT22;25517;52.422;10.782;2022-11-03T13:08:11;16.20;95.10
39847;DHT22;25517;52.422;10.782;2022-11-03T13:10:36;15.90;95.80
39847;DHT22;25517;52.422;10.782;2022-11-03T13:13:02;15.70;95.80
39847;DHT22;25517;52.422;10.782;2022-11-03T13:15:27;15.80;95.90
39847;DHT22;25517;52.422;10.782;2022-11-03T13:17:53;15.70;96.30
39847;DHT22;25517;52.422;10.782;2022-11-03T13:20:18;15.70;96.30
39847;DHT22;25517;52.422;10.782;2022-11-03T13:22:44;15.40;96.60
39847;DHT22;25517;52.422;10.782;2022-11-03T13:25:09;15.40;96.80
39847;DHT22;25517;52.422;10.782;2022-11-03T13:27:35;15.40;96.70
39847;DHT22;25517;52.422;10.782;2022-11-03T13:30:00;15.30;97.00
39847;DHT22;25517;52.422;10.782;2022-11-03T13:32:26;15.20;96.90
39847;DHT22;25517;52.422;10.782;2022-11-03T13:34:51;15.20;97.10
39847;DHT22;25517;52.422;10.782;2022-11-03T13:37:17;15.20;97.20
39847;DHT22;25517;52.422;10.782;2022-11-03T13:39:42;15.10;97.10
39847;DHT22;25517;52.422;10.782;2022-11-03T13:42:08;15.00;97.40
39847;DHT22;25517;52.422;10.782;2022-11-03T13:44:33;15.00;97.50
39847;DHT22;25517;52.422;10.782;2022-11-03T13:46:58;15.00;97.60
39847;DHT22;25517;52.422;10.782;2022-11-03T13:49:24;14.80;97.40
39847;DHT22;25517;52.422;10.782;2022-11-03T13:51:49;14.80;97.80
39847;DHT22;25517;52.422;10.782;2022-11-03T13:54:15;14.80;97.90
39847;DHT22;25517;52.422;10.782;2022-11-03T13:56:41;14.70;97.60
39847;DHT22;25517;52.422;10.782;2022-11-03T13:59:06;14.70;97.80
39847;DHT22;25517;52.422;10.782;2022-11-03T14:01:32;14.70;97.70
39847;DHT22;25517;52.422;10.782;2022-11-03T14:03:57;14.60;97.80
39847;DHT22;25517;52.422;10.782;2022-11-03T14:06:22;14.60;97.80
39847;DHT22;25517;52.422;10.782;2022-11-03T14:08:48;14.50;98.00
39847;DHT22;25517;52.422;10.782;2022-11-03T14:11:13;14.60;98.20
39847;DHT22;25517;52.422;10.782;2022-11-03T14:13:57;14.70;98.00
39847;DHT22;25517;52.422;10.782;2022-11-03T14:16:23;14.60;97.90
39847;DHT22;25517;52.422;10.782;2022-11-03T14:18:48;14.60;97.80
39847;DHT22;25517;52.422;10.782;2022-11-03T14:21:14;14.50;98.10
39847;DHT22;25517;52.422;10.782;2022-11-03T14:23:39;14.40;98.60
39847;DHT22;25517;52.422;10.782;2022-11-03T14:26:04;14.30;98.70
39847;DHT22;25517;52.422;10.782;2022-11-03T14:28:30;14.40;98.60
39847;DHT22;25517;52.422;10.782;2022-11-03T14:30:55;14.20;98.60
39847;DHT22;25517;52.422;10.782;2022-11-03T14:33:24;14.30;98.50
39847;DHT22;25517;52.422;10.782;2022-11-03T14:35:50;14.10;98.80
39847;DHT22;25517;52.422;10.782;2022-11-03T14:38:16;14.10;98.80
39847;DHT22;25517;52.422;10.782;2022-11-03T14:40:42;14.00;98.80
39847;DHT22;25517;52.422;10.782;2022-11-03T14:43:26;14.00;98.70
39847;DHT22;25517;52.422;10.782;2022-11-03T14:45:51;13.90;99.10
39847;DHT22;25517;52.422;10.782;2022-11-03T14:48:16;13.80;99.30
39847;DHT22;25517;52.422;10.782;2022-11-03T14:50:42;13.80;99.20
39847;DHT22;25517;52.422;10.782;2022-11-03T14:53:07;13.70;99.30
39847;DHT22;25517;52.422;10.782;2022-11-03T14:55:33;13.70;99.30
39847;DHT22;25517;52.422;10.782;2022-11-03T14:57:58;13.70;99.30
39847;DHT22;25517;52.422;10.782;2022-11-03T15:00:24;13.60;99.40
39847;DHT22;25517;52.422;10.782;2022-11-03T15:02:49;13.60;99.50
39847;DHT22;25517;52.422;10.782;2022-11-03T15:05:15;13.60;99.70
39847;DHT22;25517;52.422;10.782;2022-11-03T15:07:59;13.50;99.80
39847;DHT22;25517;52.422;10.782;2022-11-03T15:10:24;13.50;99.90
39847;DHT22;25517;52.422;10.782;2022-11-03T15:12:50;13.40;99.90
39847;DHT22;25517;52.422;10.782;2022-11-03T15:15:15;13.40;99.90
39847;DHT22;25517;52.422;10.782;2022-11-03T15:17:41;13.40;99.90
39847;DHT22;25517;52.422;10.782;2022-11-03T15:20:07;13.40;99.90
39847;DHT22;25517;52.422;10.782;2022-11-03T15:22:32;13.30;99.90
39847;DHT22;25517;52.422;10.782;2022-11-03T15:24:58;13.30;99.90
39847;DHT22;25517;52.422;10.782;2022-11-03T15:27:23;13.20;99.90
39847;DHT22;25517;52.422;10.782;2022-11-03T15:29:49;13.10;99.90
39847;DHT22;25517;52.422;10.782;2022-11-03T15:32:14;13.10;99.90
39847;DHT22;25517;52.422;10.782;2022-11-03T15:34:40;13.00;99.90
39847;DHT22;25517;52.422;10.782;2022-11-03T15:37:05;12.90;99.90
39847;DHT22;25517;52.422;10.782;2022-11-03T15:39:31;12.90;99.90
39847;DHT22;25517;52.422;10.782;2022-11-03T15:41:56;12.80;99.90
39847;DHT22;25517;52.422;10.782;2022-11-03T15:44:24;12.70;99.90
39847;DHT22;25517;52.422;10.782;2022-11-03T15:46:50;12.70;99.90
39847;DHT22;25517;52.422;10.782;2022-11-03T15:49:15;12.70;99.90
39847;DHT22;25517;52.422;10.782;2022-11-03T15:51:41;12.70;99.90
39847;DHT22;25517;52.422;10.782;2022-11-03T15:54:06;12.60;99.90
39847;DHT22;25517;52.422;10.782;2022-11-03T15:56:32;12.50;99.90
39847;DHT22;25517;52.422;10.782;2022-11-03T15:58:58;12.50;99.90
39847;DHT22;25517;52.422;10.782;2022-11-03T16:01:23;12.40;99.90
39847;DHT22;25517;52.422;10.782;2022-11-03T16:03:49;12.40;99.90
39847;DHT22;25517;52.422;10.782;2022-11-03T16:06:14;12.40;99.90
39847;DHT22;25517;52.422;10.782;2022-11-03T16:08:40;12.30;99.90
39847;DHT22;25517;52.422;10.782;2022-11-03T16:11:05;12.20;99.90
39847;DHT22;25517;52.422;10.782;2022-11-03T16:13:31;12.20;99.90
39847;DHT22;25517;52.422;10.782;2022-11-03T16:15:56;12.20;99.90
39847;DHT22;25517;52.422;10.782;2022-11-03T16:18:22;12.10;99.90
39847;DHT22;25517;52.422;10.782;2022-11-03T16:20:48;12.10;99.90
39847;DHT22;25517;52.422;10.782;2022-11-03T16:23:13;12.10;99.90
39847;DHT22;25517;52.422;10.782;2022-11-03T16:25:39;12.10;99.90
39847;DHT22;25517;52.422;10.782;2022-11-03T16:28:05;12.10;99.90
39847;DHT22;25517;52.422;10.782;2022-11-03T16:30:31;12.00;99.90
39847;DHT22;25517;52.422;10.782;2022-11-03T16:32:57;12.00;99.90
39847;DHT22;25517;52.422;10.782;2022-11-03T16:35:23;12.00;99.90